createdAt,value
2019-05-20T00:00:09.232Z,100.00
2019-05-20T00:02:43.027Z,100.00
2019-05-20T00:05:11.631Z,100.00
2019-05-20T00:07:40.132Z,100.00
2019-05-20T00:10:09.028Z,100.00
2019-05-20T00:12:37.456Z,100.00
2019-05-20T00:15:06.862Z,100.00
2019-05-20T00:17:35.304Z,100.00
2019-05-20T00:20:08.122Z,100.00
2019-05-20T00:22:36.571Z,100.00
2019-05-20T00:25:07.728Z,99.21
2019-05-20T00:27:36.252Z,98.37
2019-05-20T00:30:06.314Z,99.15
2019-05-20T00:32:41.231Z,100.00
2019-05-20T00:35:07.169Z,100.00
2019-05-20T00:37:35.653Z,100.00
2019-05-20T00:40:08.405Z,100.00
2019-05-20T00:42:36.862Z,100.00
2019-05-20T00:45:06.026Z,100.00
2019-05-20T00:47:34.565Z,99.34
2019-05-20T00:50:03.508Z,100.00
2019-05-20T00:52:32.039Z,100.00
2019-05-20T00:55:00.613Z,100.00
2019-05-20T00:57:29.078Z,100.00
2019-05-20T00:59:57.560Z,100.00
2019-05-20T01:02:26.015Z,100.00
2019-05-20T01:04:54.466Z,100.00
2019-05-20T01:07:22.890Z,100.00
2019-05-20T01:09:51.386Z,100.00
2019-05-20T01:12:19.879Z,100.00
2019-05-20T01:14:48.319Z,100.00
2019-05-20T01:17:16.744Z,100.00
2019-05-20T01:19:45.208Z,100.00
2019-05-20T01:22:13.631Z,100.00
2019-05-20T01:24:42.072Z,100.00
2019-05-20T01:27:10.577Z,100.00
2019-05-20T01:29:39.030Z,100.00
2019-05-20T01:32:07.454Z,100.00
2019-05-20T01:34:35.903Z,100.00
2019-05-20T01:37:04.439Z,100.00
2019-05-20T01:39:32.961Z,100.00
2019-05-20T01:42:01.669Z,100.00
2019-05-20T01:44:30.187Z,100.00
2019-05-20T01:46:58.705Z,100.00
2019-05-20T01:49:27.149Z,98.60
2019-05-20T01:51:55.558Z,99.83
2019-05-20T01:54:23.984Z,100.00
2019-05-20T01:56:52.580Z,99.70
2019-05-20T01:59:20.997Z,99.66
2019-05-20T02:01:49.446Z,99.70
2019-05-20T02:04:17.864Z,98.99
2019-05-20T02:06:46.354Z,99.10
2019-05-20T02:09:14.938Z,97.63
2019-05-20T02:11:43.409Z,97.79
2019-05-20T02:14:13.462Z,98.14
2019-05-20T02:16:41.925Z,98.42
2019-05-20T02:19:10.365Z,98.14
2019-05-20T02:21:38.794Z,98.15
2019-05-20T02:24:07.228Z,98.33
2019-05-20T02:26:35.648Z,97.54
2019-05-20T02:29:04.284Z,97.74
2019-05-20T02:31:32.802Z,98.42
2019-05-20T02:34:01.305Z,99.27
2019-05-20T02:36:29.764Z,99.75
2019-05-20T02:38:58.293Z,100.00
2019-05-20T02:41:27.423Z,100.00
2019-05-20T02:43:55.836Z,99.24
2019-05-20T02:46:24.383Z,98.74
2019-05-20T02:48:52.853Z,98.50
2019-05-20T02:51:22.923Z,98.64
2019-05-20T02:53:51.367Z,99.05
2019-05-20T02:56:19.802Z,97.88
2019-05-20T02:58:48.272Z,97.08
2019-05-20T03:01:16.701Z,97.66
2019-05-20T03:03:45.199Z,98.37
2019-05-20T03:06:13.654Z,99.27
2019-05-20T03:08:42.067Z,99.40
2019-05-20T03:11:10.514Z,99.19
2019-05-20T03:13:38.927Z,98.53
2019-05-20T03:16:07.763Z,97.93
2019-05-20T03:18:36.270Z,97.68
2019-05-20T03:21:04.789Z,98.44
2019-05-20T03:23:33.321Z,98.78
2019-05-20T03:26:01.774Z,99.36
2019-05-20T03:28:30.253Z,99.44
2019-05-20T03:30:58.704Z,99.25
2019-05-20T03:33:27.184Z,99.21
2019-05-20T03:35:55.627Z,99.64
2019-05-20T03:38:24.051Z,99.79
2019-05-20T03:40:52.480Z,100.00
2019-05-20T03:43:20.986Z,100.00
2019-05-20T03:45:49.503Z,100.00
2019-05-20T03:48:17.933Z,100.00
2019-05-20T03:50:46.456Z,100.00
2019-05-20T03:53:14.859Z,100.00
2019-05-20T03:55:44.357Z,100.00
2019-05-20T03:58:13.941Z,100.00
2019-05-20T04:00:47.117Z,100.00
2019-05-20T04:03:16.431Z,100.00
2019-05-20T04:05:45.584Z,100.00
2019-05-20T04:08:14.562Z,100.00
2019-05-20T04:10:43.219Z,100.00
2019-05-20T04:13:11.716Z,100.00
2019-05-20T04:15:40.368Z,100.00
2019-05-20T04:18:08.968Z,100.00
2019-05-20T04:20:37.472Z,100.00
2019-05-20T04:23:05.969Z,100.00
2019-05-20T04:25:34.609Z,100.00
2019-05-20T04:28:03.201Z,100.00
2019-05-20T04:30:31.689Z,100.00
2019-05-20T04:33:00.223Z,100.00
2019-05-20T04:35:28.822Z,100.00
2019-05-20T04:37:57.259Z,100.00
2019-05-20T04:40:25.771Z,100.00
2019-05-20T04:42:54.294Z,100.00
2019-05-20T04:45:22.758Z,100.00
2019-05-20T04:47:51.173Z,100.00
2019-05-20T04:50:19.774Z,100.00
2019-05-20T04:52:48.210Z,100.00
2019-05-20T04:55:16.796Z,100.00
2019-05-20T04:57:45.226Z,100.00
2019-05-20T05:00:15.098Z,100.00
2019-05-20T05:02:43.977Z,100.00
2019-05-20T05:05:12.673Z,100.00
2019-05-20T05:07:41.160Z,100.00
2019-05-20T05:10:10.386Z,100.00
2019-05-20T05:12:38.832Z,100.00
2019-05-20T05:15:12.307Z,100.00
2019-05-20T05:17:40.873Z,100.00
2019-05-20T05:20:17.516Z,100.00
2019-05-20T05:22:39.799Z,100.00
2019-05-20T05:25:08.359Z,100.00
2019-05-20T05:27:36.861Z,100.00
2019-05-20T05:30:07.230Z,100.00
2019-05-20T05:32:41.908Z,100.00
2019-05-20T05:35:15.401Z,100.00
2019-05-20T05:37:44.145Z,100.00
2019-05-20T05:40:13.313Z,100.00
2019-05-20T05:42:41.773Z,100.00
2019-05-20T05:45:11.750Z,100.00
2019-05-20T05:47:40.238Z,100.00
2019-05-20T05:50:09.446Z,100.00
2019-05-20T05:52:37.888Z,100.00
2019-05-20T05:55:06.575Z,100.00
2019-05-20T05:57:35.002Z,100.00
2019-05-20T06:00:05.496Z,100.00
2019-05-20T06:02:33.938Z,100.00
2019-05-20T06:05:02.352Z,100.00
2019-05-20T06:07:30.809Z,100.00
2019-05-20T06:09:59.333Z,100.00
2019-05-20T06:12:28.342Z,100.00
2019-05-20T06:14:56.796Z,100.00
2019-05-20T06:17:25.255Z,100.00
2019-05-20T06:19:53.679Z,100.00
2019-05-20T06:22:22.191Z,100.00
2019-05-20T06:24:51.043Z,100.00
2019-05-20T06:27:20.102Z,100.00
2019-05-20T06:29:48.607Z,100.00
2019-05-20T06:32:17.161Z,100.00
2019-05-20T06:34:45.705Z,100.00
2019-05-20T06:37:15.988Z,100.00
2019-05-20T06:39:44.534Z,100.00
2019-05-20T06:42:13.026Z,100.00
2019-05-20T06:44:52.405Z,100.00
2019-05-20T06:47:11.775Z,100.00
2019-05-20T06:49:40.528Z,100.00
2019-05-20T06:52:09.054Z,100.00
2019-05-20T06:54:37.555Z,100.00
2019-05-20T06:57:05.998Z,100.00
2019-05-20T06:59:34.708Z,100.00
2019-05-20T07:02:03.401Z,100.00
2019-05-20T07:04:31.932Z,100.00
2019-05-20T07:07:00.427Z,100.00
2019-05-20T07:09:28.869Z,100.00
2019-05-20T07:11:57.338Z,100.00
2019-05-20T07:14:25.800Z,100.00
2019-05-20T07:16:54.267Z,100.00
2019-05-20T07:19:22.703Z,100.00
2019-05-20T07:21:51.143Z,100.00
2019-05-20T07:24:19.687Z,100.00
2019-05-20T07:26:48.114Z,100.00
2019-05-20T07:29:16.611Z,100.00
2019-05-20T07:31:45.067Z,100.00
2019-05-20T07:34:13.485Z,100.00
2019-05-20T07:36:41.964Z,100.00
2019-05-20T07:39:10.380Z,100.00
2019-05-20T07:41:41.395Z,100.00
2019-05-20T07:44:09.011Z,100.00
2019-05-20T07:46:37.614Z,100.00
2019-05-20T07:49:06.531Z,100.00
2019-05-20T07:51:35.871Z,100.00
2019-05-20T07:54:04.472Z,100.00
2019-05-20T07:56:35.941Z,100.00
2019-05-20T07:59:07.395Z,100.00
2019-05-20T08:01:36.063Z,100.00
2019-05-20T08:04:04.672Z,100.00
2019-05-20T08:06:33.162Z,100.00
2019-05-20T08:09:01.679Z,100.00
2019-05-20T08:11:30.219Z,100.00
2019-05-20T08:13:58.747Z,100.00
2019-05-20T08:16:27.267Z,100.00
2019-05-20T08:18:55.725Z,100.00
2019-05-20T08:21:24.727Z,100.00
2019-05-20T08:23:53.208Z,100.00
2019-05-20T08:26:21.828Z,100.00
2019-05-20T08:28:50.403Z,100.00
2019-05-20T08:31:19.005Z,100.00
2019-05-20T08:33:47.559Z,100.00
2019-05-20T08:36:15.989Z,100.00
2019-05-20T08:38:44.484Z,100.00
2019-05-20T08:41:13.018Z,100.00
2019-05-20T08:43:41.457Z,100.00
2019-05-20T08:46:09.988Z,100.00
2019-05-20T08:48:38.536Z,100.00
2019-05-20T08:51:07.071Z,100.00
2019-05-20T08:53:35.505Z,100.00
2019-05-20T08:56:04.045Z,100.00
2019-05-20T08:58:32.531Z,100.00
2019-05-20T09:01:01.063Z,100.00
2019-05-20T09:03:30.440Z,100.00
2019-05-20T09:05:59.308Z,100.00
2019-05-20T09:08:27.820Z,100.00
2019-05-20T09:10:56.248Z,100.00
2019-05-20T09:13:24.793Z,100.00
2019-05-20T09:15:53.303Z,100.00
2019-05-20T09:18:21.807Z,100.00
2019-05-20T09:20:50.283Z,100.00
2019-05-20T09:23:19.022Z,100.00
2019-05-20T09:25:47.475Z,100.00
2019-05-20T09:28:15.914Z,100.00
2019-05-20T09:30:44.609Z,100.00
2019-05-20T09:33:13.201Z,99.35
2019-05-20T09:35:42.086Z,99.15
2019-05-20T09:38:19.988Z,99.00
2019-05-20T09:40:47.295Z,99.66
2019-05-20T09:43:16.111Z,98.86
2019-05-20T09:45:44.727Z,97.93
2019-05-20T09:48:13.730Z,96.72
2019-05-20T09:50:42.234Z,95.95
2019-05-20T09:53:10.758Z,96.34
2019-05-20T09:55:39.326Z,95.60
2019-05-20T09:58:08.609Z,96.38
2019-05-20T10:00:37.368Z,96.42
2019-05-20T10:03:07.001Z,96.67
2019-05-20T10:05:37.396Z,98.04
2019-05-20T10:08:06.633Z,96.87
2019-05-20T10:10:35.280Z,96.73
2019-05-20T10:13:03.894Z,96.96
2019-05-20T10:15:32.550Z,96.84
2019-05-20T10:18:01.041Z,96.81
2019-05-20T10:20:29.514Z,94.21
2019-05-20T10:22:57.960Z,92.22
2019-05-20T10:25:26.579Z,90.99
2019-05-20T10:27:57.463Z,89.45
2019-05-20T10:30:25.469Z,88.36
2019-05-20T10:32:53.929Z,89.23
2019-05-20T10:35:22.494Z,90.44
2019-05-20T10:37:51.013Z,89.24
2019-05-20T10:40:19.789Z,88.71
2019-05-20T10:42:48.240Z,87.94
2019-05-20T10:45:16.847Z,87.59
2019-05-20T10:47:45.405Z,89.19
2019-05-20T10:50:14.271Z,87.97
2019-05-20T10:52:42.749Z,88.58
2019-05-20T10:55:11.682Z,88.42
2019-05-20T10:57:40.225Z,88.12
2019-05-20T11:00:09.208Z,88.10
2019-05-20T11:02:37.686Z,88.60
2019-05-20T11:05:06.752Z,88.18
2019-05-20T11:07:35.250Z,88.90
2019-05-20T11:10:07.711Z,89.84
2019-05-20T11:12:36.245Z,88.31
2019-05-20T11:15:08.990Z,90.26
2019-05-20T11:17:37.558Z,89.05
2019-05-20T11:20:07.948Z,88.16
2019-05-20T11:22:36.417Z,87.97
2019-05-20T11:25:06.812Z,86.57
2019-05-20T11:27:35.231Z,87.32
2019-05-20T11:30:05.769Z,87.11
2019-05-20T11:32:34.356Z,86.36
2019-05-20T11:35:03.379Z,87.98
2019-05-20T11:37:31.887Z,88.64
2019-05-20T11:40:00.337Z,88.79
2019-05-20T11:42:28.827Z,88.91
2019-05-20T11:44:57.289Z,88.13
2019-05-20T11:47:25.762Z,87.63
2019-05-20T11:49:54.190Z,88.15
2019-05-20T11:52:22.792Z,88.83
2019-05-20T11:54:51.342Z,89.66
2019-05-20T11:57:19.779Z,90.12
2019-05-20T11:59:48.237Z,89.57
2019-05-20T12:02:16.691Z,91.73
2019-05-20T12:04:45.171Z,91.08
2019-05-20T12:07:13.597Z,89.61
2019-05-20T12:09:49.500Z,90.49
2019-05-20T12:12:12.249Z,90.03
2019-05-20T12:14:40.822Z,90.48
2019-05-20T12:17:09.282Z,89.36
2019-05-20T12:19:37.754Z,89.33
2019-05-20T12:22:06.193Z,88.77
2019-05-20T12:24:34.727Z,89.59
2019-05-20T12:27:03.175Z,89.92
2019-05-20T12:29:31.622Z,89.89
2019-05-20T12:32:03.431Z,91.26
2019-05-20T12:34:30.327Z,90.98
2019-05-20T12:36:58.759Z,91.57
2019-05-20T12:39:27.304Z,91.90
2019-05-20T12:41:55.877Z,92.34
2019-05-20T12:44:24.329Z,90.92
2019-05-20T12:46:52.830Z,92.05
2019-05-20T12:49:21.652Z,92.66
2019-05-20T12:51:50.139Z,92.83
2019-05-20T12:54:18.658Z,93.41
2019-05-20T12:56:47.177Z,92.58
2019-05-20T12:59:15.690Z,92.12
2019-05-20T13:01:44.318Z,92.75
2019-05-20T13:04:12.768Z,92.89
2019-05-20T13:06:41.216Z,93.04
2019-05-20T13:09:10.116Z,92.07
2019-05-20T13:11:38.576Z,91.26
2019-05-20T13:14:07.053Z,90.40
2019-05-20T13:16:35.498Z,90.33
2019-05-20T13:19:04.019Z,89.65
2019-05-20T13:21:32.497Z,89.21
2019-05-20T13:24:00.919Z,89.79
2019-05-20T13:26:29.491Z,89.64
2019-05-20T13:28:59.685Z,89.15
2019-05-20T13:31:28.154Z,89.59
2019-05-20T13:33:56.602Z,89.15
2019-05-20T13:36:25.110Z,89.59
2019-05-20T13:38:53.578Z,89.84
2019-05-20T13:41:22.010Z,89.16
2019-05-20T13:43:50.597Z,89.04
2019-05-20T13:46:19.057Z,89.05
2019-05-20T13:48:47.627Z,89.03
2019-05-20T13:51:16.190Z,88.33
2019-05-20T13:53:44.669Z,87.92
2019-05-20T13:56:13.247Z,88.89
2019-05-20T13:58:41.820Z,88.54
2019-05-20T14:01:10.343Z,89.26
2019-05-20T14:03:38.867Z,89.71
2019-05-20T14:06:07.506Z,91.08
2019-05-20T14:08:35.975Z,91.60
2019-05-20T14:11:05.105Z,91.40
2019-05-20T14:13:33.741Z,90.78
2019-05-20T14:16:02.176Z,92.54
2019-05-20T14:18:30.701Z,92.34
2019-05-20T14:20:59.133Z,90.79
2019-05-20T14:23:27.658Z,92.00
2019-05-20T14:25:56.099Z,91.61
2019-05-20T14:28:24.594Z,91.56
2019-05-20T14:30:53.049Z,90.94
2019-05-20T14:33:21.562Z,91.28
2019-05-20T14:35:50.033Z,91.20
2019-05-20T14:38:18.544Z,90.87
2019-05-20T14:40:47.063Z,91.27
2019-05-20T14:43:15.480Z,92.19
2019-05-20T14:45:45.250Z,92.86
2019-05-20T14:48:13.830Z,94.30
2019-05-20T14:50:42.256Z,94.90
2019-05-20T14:53:10.850Z,96.00
2019-05-20T14:55:42.671Z,94.12
2019-05-20T14:58:10.062Z,94.17
2019-05-20T15:00:38.593Z,94.95
2019-05-20T15:03:07.097Z,93.94
2019-05-20T15:05:35.773Z,94.30
2019-05-20T15:08:04.445Z,94.89
2019-05-20T15:10:33.341Z,94.44
2019-05-20T15:13:01.828Z,94.41
2019-05-20T15:15:30.921Z,93.43
2019-05-20T15:17:59.530Z,92.98
2019-05-20T15:20:27.983Z,93.88
2019-05-20T15:22:56.394Z,93.44
2019-05-20T15:25:24.984Z,94.15
2019-05-20T15:27:53.920Z,94.41
2019-05-20T15:30:22.525Z,94.77
2019-05-20T15:32:54.497Z,93.67
2019-05-20T15:35:21.215Z,94.35
2019-05-20T15:37:49.766Z,94.28
2019-05-20T15:40:18.331Z,93.75
2019-05-20T15:42:46.867Z,94.46
2019-05-20T15:45:15.689Z,94.83
2019-05-20T15:47:44.159Z,94.27
2019-05-20T15:50:13.404Z,93.04
2019-05-20T15:52:42.358Z,93.88
2019-05-20T15:55:11.487Z,93.48
2019-05-20T15:57:39.957Z,94.53
2019-05-20T16:00:10.469Z,93.99
2019-05-20T16:02:39.099Z,94.48
2019-05-20T16:05:08.416Z,94.03
2019-05-20T16:07:36.875Z,95.15
2019-05-20T16:10:06.853Z,94.48
2019-05-20T16:12:35.625Z,95.02
2019-05-20T16:15:06.599Z,94.42
2019-05-20T16:17:35.135Z,94.05
2019-05-20T16:20:07.112Z,93.22
2019-05-20T16:22:35.425Z,92.84
2019-05-20T16:25:05.193Z,92.47
2019-05-20T16:27:33.759Z,93.92
2019-05-20T16:30:06.742Z,92.51
2019-05-20T16:32:32.449Z,91.86
2019-05-20T16:35:01.454Z,91.88
2019-05-20T16:37:29.903Z,91.85
2019-05-20T16:39:58.385Z,92.95
2019-05-20T16:42:26.874Z,92.33
2019-05-20T16:44:55.455Z,91.87
2019-05-20T16:47:24.071Z,91.44
2019-05-20T16:49:52.611Z,92.48
2019-05-20T16:52:21.186Z,92.55
2019-05-20T16:54:49.719Z,92.20
2019-05-20T16:57:18.168Z,92.10
2019-05-20T16:59:46.699Z,93.03
2019-05-20T17:02:15.254Z,92.94
2019-05-20T17:04:43.858Z,93.35
2019-05-20T17:07:12.338Z,93.65
2019-05-20T17:09:40.854Z,93.16
2019-05-20T17:12:09.297Z,94.26
2019-05-20T17:14:37.743Z,94.80
2019-05-20T17:17:06.342Z,95.01
2019-05-20T17:19:34.821Z,94.21
2019-05-20T17:22:03.376Z,95.09
2019-05-20T17:24:31.811Z,94.01
2019-05-20T17:27:00.307Z,94.66
2019-05-20T17:29:28.805Z,95.91
2019-05-20T17:31:57.266Z,96.34
2019-05-20T17:34:25.696Z,95.30
2019-05-20T17:36:54.280Z,96.05
2019-05-20T17:39:22.917Z,95.79
2019-05-20T17:41:51.469Z,96.13
2019-05-20T17:44:20.022Z,96.35
2019-05-20T17:46:48.561Z,95.95
2019-05-20T17:49:17.271Z,95.80
2019-05-20T17:51:45.775Z,94.90
2019-05-20T17:54:14.667Z,95.89
2019-05-20T17:56:43.366Z,95.60
2019-05-20T17:59:11.790Z,95.38
2019-05-20T18:01:40.296Z,95.84
2019-05-20T18:04:08.881Z,94.50
2019-05-20T18:06:37.410Z,94.15
2019-05-20T18:09:07.687Z,93.74
2019-05-20T18:11:36.309Z,95.00
2019-05-20T18:14:05.471Z,96.12
2019-05-20T18:16:34.378Z,96.84
2019-05-20T18:19:02.892Z,96.15
2019-05-20T18:21:31.353Z,96.04
2019-05-20T18:23:59.933Z,97.40
2019-05-20T18:26:28.362Z,95.92
2019-05-20T18:28:56.828Z,95.48
2019-05-20T18:31:32.483Z,95.79
2019-05-20T18:33:55.538Z,96.95
2019-05-20T18:36:24.075Z,96.29
2019-05-20T18:38:52.508Z,96.52
2019-05-20T18:41:21.003Z,96.67
2019-05-20T18:43:49.461Z,96.80
2019-05-20T18:46:17.983Z,97.40
2019-05-20T18:48:46.436Z,98.17
2019-05-20T18:51:14.921Z,98.41
2019-05-20T18:53:43.382Z,99.44
2019-05-20T18:56:11.964Z,98.01
2019-05-20T18:58:40.429Z,98.16
2019-05-20T19:01:08.938Z,98.78
2019-05-20T19:03:37.455Z,99.55
2019-05-20T19:06:05.967Z,98.52
2019-05-20T19:08:34.469Z,98.62
2019-05-20T19:11:03.072Z,98.45
2019-05-20T19:13:31.568Z,98.41
2019-05-20T19:16:00.153Z,97.81
2019-05-20T19:18:30.706Z,96.84
2019-05-20T19:20:59.226Z,96.36
2019-05-20T19:23:27.673Z,96.14
2019-05-20T19:25:56.193Z,96.95
2019-05-20T19:28:24.691Z,97.34
2019-05-20T19:30:53.231Z,96.75
2019-05-20T19:33:21.760Z,96.49
2019-05-20T19:35:50.318Z,95.69
2019-05-20T19:38:19.011Z,96.00
2019-05-20T19:40:47.475Z,97.49
2019-05-20T19:43:15.986Z,96.77
2019-05-20T19:45:44.557Z,97.86
2019-05-20T19:48:13.158Z,97.33
2019-05-20T19:50:41.685Z,98.09
2019-05-20T19:53:10.207Z,97.85
2019-05-20T19:55:38.690Z,98.52
2019-05-20T19:58:07.298Z,98.73
2019-05-20T20:00:35.758Z,100.00
2019-05-20T20:03:04.279Z,99.73
2019-05-20T20:05:32.765Z,100.00
2019-05-20T20:08:01.310Z,100.00
2019-05-20T20:10:29.793Z,100.00
2019-05-20T20:12:58.231Z,100.00
2019-05-20T20:15:26.811Z,100.00
2019-05-20T20:17:55.237Z,100.00
2019-05-20T20:20:23.709Z,100.00
2019-05-20T20:22:52.150Z,100.00
2019-05-20T20:25:20.623Z,100.00
2019-05-20T20:27:49.199Z,100.00
2019-05-20T20:30:17.787Z,100.00
2019-05-20T20:32:46.266Z,100.00
2019-05-20T20:35:14.893Z,100.00
2019-05-20T20:37:43.458Z,100.00
2019-05-20T20:40:12.233Z,100.00
2019-05-20T20:42:40.815Z,100.00
2019-05-20T20:45:09.558Z,100.00
2019-05-20T20:47:41.651Z,100.00
2019-05-20T20:50:08.591Z,100.00
2019-05-20T20:52:37.066Z,100.00
2019-05-20T20:55:06.836Z,100.00
2019-05-20T20:57:35.545Z,100.00
2019-05-20T21:00:06.613Z,100.00
2019-05-20T21:02:35.052Z,100.00
2019-05-20T21:05:04.255Z,100.00
2019-05-20T21:07:33.057Z,100.00
2019-05-20T21:10:01.529Z,100.00
2019-05-20T21:12:30.022Z,100.00
2019-05-20T21:14:58.521Z,100.00
2019-05-20T21:17:27.029Z,100.00
2019-05-20T21:19:55.521Z,100.00
2019-05-20T21:22:23.998Z,100.00
2019-05-20T21:24:52.465Z,100.00
2019-05-20T21:27:20.970Z,100.00
2019-05-20T21:29:49.425Z,100.00
2019-05-20T21:32:17.863Z,100.00
2019-05-20T21:34:46.349Z,100.00
2019-05-20T21:37:14.842Z,100.00
2019-05-20T21:39:43.276Z,100.00
2019-05-20T21:42:11.721Z,100.00
2019-05-20T21:44:40.168Z,100.00
2019-05-20T21:47:11.414Z,100.00
2019-05-20T21:49:39.904Z,100.00
2019-05-20T21:52:08.356Z,100.00
2019-05-20T21:54:36.823Z,100.00
2019-05-20T21:57:05.351Z,100.00
2019-05-20T21:59:33.878Z,100.00
2019-05-20T22:02:02.379Z,100.00
2019-05-20T22:04:30.920Z,100.00
2019-05-20T22:06:59.459Z,100.00
2019-05-20T22:09:27.964Z,100.00
2019-05-20T22:11:56.398Z,100.00
2019-05-20T22:14:24.990Z,100.00
2019-05-20T22:16:53.527Z,100.00
2019-05-20T22:19:22.090Z,100.00
2019-05-20T22:22:08.546Z,100.00
2019-05-20T22:24:36.999Z,100.00
2019-05-20T22:27:05.442Z,100.00
2019-05-20T22:29:33.982Z,100.00
2019-05-20T22:32:02.454Z,100.00
2019-05-20T22:34:31.109Z,100.00
2019-05-20T22:36:59.538Z,100.00
2019-05-20T22:39:28.003Z,100.00
2019-05-20T22:41:56.440Z,100.00
2019-05-20T22:44:24.872Z,100.00
2019-05-20T22:46:53.339Z,100.00
2019-05-20T22:49:21.778Z,100.00
2019-05-20T22:51:50.255Z,100.00
2019-05-20T22:54:18.762Z,100.00
2019-05-20T22:56:47.294Z,100.00
2019-05-20T22:59:15.799Z,100.00
2019-05-20T23:01:44.230Z,100.00
2019-05-20T23:04:12.719Z,100.00
2019-05-20T23:06:41.242Z,100.00
2019-05-20T23:09:10.980Z,100.00
2019-05-20T23:11:39.596Z,100.00
2019-05-20T23:14:08.042Z,100.00
2019-05-20T23:16:36.549Z,100.00
2019-05-20T23:19:05.092Z,100.00
2019-05-20T23:21:33.605Z,100.00
2019-05-20T23:24:02.132Z,100.00
2019-05-20T23:26:30.689Z,100.00
2019-05-20T23:28:59.194Z,100.00
2019-05-20T23:31:27.622Z,100.00
2019-05-20T23:34:10.356Z,100.00
2019-05-20T23:36:26.230Z,100.00
2019-05-20T23:38:55.080Z,100.00
2019-05-20T23:41:23.530Z,100.00
2019-05-20T23:43:51.973Z,100.00
2019-05-20T23:46:20.452Z,100.00
2019-05-20T23:48:48.953Z,100.00
2019-05-20T23:51:17.418Z,100.00
2019-05-20T23:53:47.457Z,100.00
2019-05-20T23:56:16.030Z,100.00
2019-05-20T23:58:44.468Z,100.00
